createdAt,value
2022-09-16T00:01:02.038Z,28.81
2022-09-16T00:03:29.827Z,28.66
2022-09-16T00:05:58.637Z,28.90
2022-09-16T00:08:26.361Z,28.87
2022-09-16T00:10:53.928Z,28.85
2022-09-16T00:13:21.678Z,28.71
2022-09-16T00:15:53.284Z,28.79
2022-09-16T00:18:21.497Z,28.76
2022-09-16T00:20:51.982Z,28.81
2022-09-16T00:23:20.226Z,28.80
2022-09-16T00:25:55.351Z,28.37
2022-09-16T00:28:24.315Z,28.79
2022-09-16T00:30:52.059Z,28.55
2022-09-16T00:33:20.754Z,28.54
2022-09-16T00:35:48.481Z,28.24
2022-09-16T00:38:16.392Z,28.40
2022-09-16T00:40:46.406Z,28.77
2022-09-16T00:43:19.016Z,28.78
2022-09-16T00:45:55.425Z,28.54
2022-09-16T00:48:26.170Z,28.78
2022-09-16T00:51:02.492Z,28.42
2022-09-16T00:53:34.485Z,28.75
2022-09-16T00:56:05.854Z,28.48
2022-09-16T00:58:44.563Z,28.70
2022-09-16T01:01:12.330Z,28.74
2022-09-16T01:03:47.199Z,28.54
2022-09-16T01:06:16.973Z,28.77
2022-09-16T01:08:45.636Z,28.76
2022-09-16T01:11:13.257Z,28.69
2022-09-16T01:13:42.906Z,28.54
2022-09-16T01:16:18.556Z,28.69
2022-09-16T01:18:55.526Z,28.73
2022-09-16T01:21:32.072Z,28.70
2022-09-16T01:24:04.183Z,28.69
2022-09-16T01:26:49.710Z,28.64
2022-09-16T01:29:35.660Z,28.65
2022-09-16T01:32:24.637Z,28.65
2022-09-16T01:34:58.129Z,28.63
2022-09-16T01:37:31.654Z,28.44
2022-09-16T01:40:33.609Z,28.52
2022-09-16T01:43:13.424Z,28.27
2022-09-16T01:45:59.083Z,28.62
2022-09-16T01:48:39.521Z,28.61
2022-09-16T01:51:22.461Z,28.60
2022-09-16T01:53:57.834Z,28.61
2022-09-16T01:56:43.735Z,28.63
2022-09-16T01:59:19.282Z,28.62
2022-09-16T02:01:49.826Z,28.60
2022-09-16T02:04:24.399Z,28.37
2022-09-16T02:06:56.311Z,28.50
2022-09-16T02:09:30.745Z,28.27
2022-09-16T02:12:05.536Z,28.57
2022-09-16T02:14:40.591Z,28.58
2022-09-16T02:17:11.618Z,28.44
2022-09-16T02:19:55.584Z,28.56
2022-09-16T02:22:33.369Z,28.28
2022-09-16T02:25:03.356Z,28.53
2022-09-16T02:27:32.580Z,28.35
2022-09-16T02:30:05.798Z,28.49
2022-09-16T02:32:38.284Z,28.55
2022-09-16T02:35:10.693Z,28.54
2022-09-16T02:37:41.975Z,28.53
2022-09-16T02:40:22.740Z,28.54
2022-09-16T02:42:50.552Z,28.30
2022-09-16T02:45:18.477Z,28.29
2022-09-16T02:48:05.903Z,28.26
2022-09-16T02:50:44.054Z,28.49
2022-09-16T02:53:24.081Z,28.48
2022-09-16T02:56:01.058Z,28.47
2022-09-16T02:58:29.850Z,28.46
2022-09-16T03:00:58.710Z,28.11
2022-09-16T03:03:26.430Z,28.17
2022-09-16T03:06:09.513Z,28.47
2022-09-16T03:08:37.974Z,28.42
2022-09-16T03:11:40.384Z,28.45
2022-09-16T03:14:10.857Z,28.44
2022-09-16T03:16:50.655Z,28.42
2022-09-16T03:19:39.527Z,28.42
2022-09-16T03:22:26.965Z,28.08
2022-09-16T03:25:06.487Z,28.41
2022-09-16T03:27:59.937Z,28.17
2022-09-16T03:30:30.542Z,28.15
2022-09-16T03:33:10.078Z,28.31
2022-09-16T03:35:44.301Z,28.43
2022-09-16T03:38:14.003Z,28.41
2022-09-16T03:40:43.125Z,28.17
2022-09-16T03:43:16.203Z,28.10
2022-09-16T03:45:44.433Z,28.32
2022-09-16T03:48:13.497Z,28.23
2022-09-16T03:50:41.460Z,28.27
2022-09-16T03:53:10.301Z,28.40
2022-09-16T03:55:37.933Z,28.40
2022-09-16T03:58:05.554Z,28.40
2022-09-16T04:00:33.459Z,28.13
2022-09-16T04:03:01.506Z,28.12
2022-09-16T04:05:29.387Z,28.23
2022-09-16T04:07:57.086Z,28.08
2022-09-16T04:10:24.743Z,28.27
2022-09-16T04:12:57.242Z,28.03
2022-09-16T04:15:24.909Z,28.33
2022-09-16T04:17:52.721Z,28.07
2022-09-16T04:20:20.466Z,28.34
2022-09-16T04:22:48.099Z,28.37
2022-09-16T04:25:15.800Z,28.17
2022-09-16T04:27:43.454Z,28.29
2022-09-16T04:30:11.958Z,28.34
2022-09-16T04:32:39.707Z,28.19
2022-09-16T04:35:07.705Z,28.03
2022-09-16T04:37:35.572Z,28.22
2022-09-16T04:40:05.226Z,28.27
2022-09-16T04:42:33.028Z,28.27
2022-09-16T04:45:00.721Z,28.26
2022-09-16T04:47:29.172Z,27.72
2022-09-16T04:49:56.873Z,28.33
2022-09-16T04:52:24.615Z,28.09
2022-09-16T04:54:52.400Z,28.12
2022-09-16T04:57:20.164Z,28.18
2022-09-16T04:59:47.991Z,28.23
2022-09-16T05:02:15.700Z,28.27
2022-09-16T05:04:43.323Z,27.79
2022-09-16T05:07:10.973Z,27.82
2022-09-16T05:09:38.707Z,27.97
2022-09-16T05:12:07.000Z,27.89
2022-09-16T05:14:34.681Z,28.08
2022-09-16T05:17:02.675Z,28.01
2022-09-16T05:19:30.942Z,28.27
2022-09-16T05:21:58.671Z,28.18
2022-09-16T05:24:26.473Z,28.21
2022-09-16T05:26:54.194Z,28.19
2022-09-16T05:29:22.200Z,28.02
2022-09-16T05:31:49.967Z,28.11
2022-09-16T05:34:23.292Z,28.25
2022-09-16T05:36:54.105Z,28.24
2022-09-16T05:39:24.785Z,28.24
2022-09-16T05:42:00.670Z,28.01
2022-09-16T05:44:29.125Z,28.29
2022-09-16T05:46:57.114Z,28.33
2022-09-16T05:49:26.678Z,28.39
2022-09-16T05:51:54.603Z,28.29
2022-09-16T05:54:25.550Z,28.43
2022-09-16T05:56:56.175Z,28.05
2022-09-16T05:59:24.175Z,28.12
2022-09-16T06:01:51.918Z,28.41
2022-09-16T06:04:19.643Z,28.10
2022-09-16T06:06:47.676Z,28.21
2022-09-16T06:09:20.118Z,28.35
2022-09-16T06:11:49.854Z,28.33
2022-09-16T06:14:19.079Z,27.96
2022-09-16T06:16:47.048Z,28.32
2022-09-16T06:19:17.720Z,28.33
2022-09-16T06:21:46.226Z,28.33
2022-09-16T06:24:15.955Z,28.19
2022-09-16T06:26:45.230Z,28.30
2022-09-16T06:29:13.772Z,28.29
2022-09-16T06:31:41.902Z,28.30
2022-09-16T06:34:15.031Z,28.30
2022-09-16T06:36:45.379Z,28.31
2022-09-16T06:39:15.167Z,28.32
2022-09-16T06:41:43.213Z,28.30
2022-09-16T06:44:11.157Z,28.15
2022-09-16T06:46:39.012Z,28.32
2022-09-16T06:49:07.077Z,27.92
2022-09-16T06:51:36.280Z,28.32
2022-09-16T06:54:06.653Z,28.35
2022-09-16T06:56:37.782Z,28.30
2022-09-16T06:59:05.714Z,27.87
2022-09-16T07:01:34.024Z,28.34
2022-09-16T07:04:07.547Z,28.02
2022-09-16T07:09:23.040Z,28.21
2022-09-16T07:11:52.482Z,28.34
2022-09-16T07:14:20.295Z,28.14
2022-09-16T07:16:48.242Z,28.43
2022-09-16T07:19:15.884Z,28.29
2022-09-16T07:21:43.784Z,28.39
2022-09-16T07:24:13.245Z,28.11
2022-09-16T07:26:42.086Z,28.35
2022-09-16T07:29:15.334Z,28.45
2022-09-16T07:31:43.449Z,28.29
2022-09-16T07:34:12.602Z,28.34
2022-09-16T07:36:46.053Z,28.46
2022-09-16T07:39:15.390Z,28.34
2022-09-16T07:41:44.770Z,28.17
2022-09-16T07:44:15.120Z,28.36
2022-09-16T07:46:43.371Z,28.39
2022-09-16T07:49:13.510Z,28.19
2022-09-16T07:51:41.773Z,28.41
2022-09-16T07:54:13.938Z,28.43
2022-09-16T07:56:43.197Z,28.35
2022-09-16T07:59:17.507Z,28.34
2022-09-16T08:01:49.549Z,28.19
2022-09-16T08:04:19.602Z,28.44
2022-09-16T08:06:47.930Z,28.44
2022-09-16T08:09:37.266Z,28.39
2022-09-16T08:12:05.724Z,28.43
2022-09-16T08:14:33.736Z,28.45
2022-09-16T08:17:02.144Z,28.40
2022-09-16T08:19:29.823Z,28.13
2022-09-16T08:21:57.548Z,28.17
2022-09-16T08:24:25.285Z,28.18
2022-09-16T08:26:53.062Z,28.48
2022-09-16T08:29:22.664Z,28.17
2022-09-16T08:31:50.529Z,28.36
2022-09-16T08:34:18.281Z,28.44
2022-09-16T08:36:45.997Z,28.34
2022-09-16T08:39:16.063Z,28.43
2022-09-16T08:42:07.990Z,28.43
2022-09-16T08:44:58.722Z,28.60
2022-09-16T08:47:29.078Z,28.59
2022-09-16T08:50:00.730Z,28.59
2022-09-16T08:52:37.090Z,28.36
2022-09-16T08:55:08.514Z,28.60
2022-09-16T08:57:41.733Z,28.61
2022-09-16T09:00:18.634Z,28.39
2022-09-16T09:03:27.873Z,28.63
2022-09-16T09:05:57.807Z,28.19
2022-09-16T09:08:28.691Z,28.60
2022-09-16T09:11:19.156Z,28.25
2022-09-16T09:14:11.871Z,28.60
2022-09-16T09:16:49.066Z,28.26
2022-09-16T09:19:22.691Z,28.58
2022-09-16T09:22:30.128Z,28.59
2022-09-16T09:25:38.767Z,28.59
2022-09-16T09:28:30.831Z,28.61
2022-09-16T09:31:16.668Z,28.61
2022-09-16T09:34:24.017Z,28.54
2022-09-16T09:37:10.202Z,28.63
2022-09-16T09:40:16.220Z,28.51
2022-09-16T09:43:05.310Z,28.66
2022-09-16T09:45:38.753Z,28.31
2022-09-16T09:48:20.986Z,28.39
2022-09-16T09:50:50.740Z,28.67
2022-09-16T09:53:28.527Z,28.67
2022-09-16T09:56:24.206Z,28.65
2022-09-16T09:58:59.216Z,28.63
2022-09-16T10:01:26.999Z,28.16
2022-09-16T10:03:56.236Z,28.53
2022-09-16T10:06:30.789Z,28.60
2022-09-16T10:08:59.431Z,28.59
2022-09-16T10:11:31.350Z,28.60
2022-09-16T10:14:04.999Z,28.60
2022-09-16T10:16:37.477Z,28.60
2022-09-16T10:19:18.138Z,28.53
2022-09-16T10:21:51.336Z,28.60
2022-09-16T10:24:32.480Z,28.58
2022-09-16T10:27:02.125Z,28.20
2022-09-16T10:29:30.335Z,28.53
2022-09-16T10:32:06.604Z,28.32
2022-09-16T10:34:39.149Z,28.52
2022-09-16T10:37:18.435Z,28.54
2022-09-16T10:39:53.718Z,28.56
2022-09-16T10:42:26.565Z,28.60
2022-09-16T10:44:59.681Z,28.46
2022-09-16T10:47:31.613Z,28.60
2022-09-16T10:50:06.120Z,28.45
2022-09-16T10:52:45.918Z,28.30
2022-09-16T10:55:20.467Z,28.60
2022-09-16T10:57:48.467Z,28.38
2022-09-16T11:00:19.071Z,28.64
2022-09-16T11:03:12.095Z,28.38
2022-09-16T11:05:48.659Z,28.68
2022-09-16T11:08:19.159Z,28.65
2022-09-16T11:11:09.727Z,28.65
2022-09-16T11:14:06.382Z,28.66
2022-09-16T11:17:01.454Z,28.63
2022-09-16T11:19:29.222Z,28.62
2022-09-16T11:22:20.185Z,28.66
2022-09-16T11:25:15.373Z,28.67
2022-09-16T11:28:07.402Z,28.66
2022-09-16T11:30:49.166Z,28.67
2022-09-16T11:33:32.573Z,28.65
2022-09-16T11:36:25.161Z,28.44
2022-09-16T11:39:22.572Z,28.44
2022-09-16T11:42:06.782Z,28.53
2022-09-16T11:44:48.235Z,28.36
2022-09-16T11:47:43.736Z,28.45
2022-09-16T11:50:23.431Z,28.43
2022-09-16T11:53:20.210Z,28.46
2022-09-16T11:55:58.834Z,28.24
2022-09-16T11:58:35.505Z,28.51
2022-09-16T12:01:30.560Z,28.37
2022-09-16T12:04:18.455Z,28.54
2022-09-16T12:06:56.491Z,28.48
2022-09-16T12:09:38.284Z,28.53
2022-09-16T12:12:13.720Z,28.52
2022-09-16T12:14:46.874Z,28.32
2022-09-16T12:17:22.063Z,28.23
2022-09-16T12:19:57.737Z,28.43
2022-09-16T12:22:43.562Z,28.50
2022-09-16T12:25:33.224Z,28.38
2022-09-16T12:28:25.026Z,28.52
2022-09-16T12:31:35.171Z,28.51
2022-09-16T12:34:10.223Z,28.18
2022-09-16T12:36:43.280Z,28.40
2022-09-16T12:39:15.886Z,28.09
2022-09-16T12:42:00.550Z,28.45
2022-09-16T12:44:49.475Z,28.45
2022-09-16T12:47:55.004Z,28.49
2022-09-16T12:50:45.880Z,28.52
2022-09-16T12:53:22.827Z,28.56
2022-09-16T12:55:53.526Z,28.60
2022-09-16T12:58:27.395Z,28.62
2022-09-16T13:01:07.400Z,28.66
2022-09-16T13:03:40.582Z,28.67
2022-09-16T13:06:33.278Z,28.30
2022-09-16T13:09:25.541Z,28.63
2022-09-16T13:15:07.215Z,28.66
2022-09-16T13:17:39.791Z,28.68
2022-09-16T13:20:17.926Z,28.56
2022-09-16T13:22:52.919Z,28.48
2022-09-16T13:25:26.547Z,28.71
2022-09-16T13:28:03.147Z,28.71
2022-09-16T13:30:39.357Z,28.65
2022-09-16T13:33:10.049Z,28.61
2022-09-16T13:35:41.939Z,28.59
2022-09-16T13:38:18.633Z,28.56
2022-09-16T13:40:53.839Z,28.51
2022-09-16T13:43:47.481Z,28.43
2022-09-16T13:46:31.475Z,28.04
2022-09-16T13:49:11.163Z,27.93
2022-09-16T13:51:45.311Z,28.08
2022-09-16T13:54:25.790Z,28.08
2022-09-16T13:57:12.580Z,28.09
2022-09-16T13:59:46.750Z,28.11
2022-09-16T14:02:37.557Z,28.05
2022-09-16T14:05:43.128Z,28.12
2022-09-16T14:08:40.756Z,27.77
2022-09-16T14:11:32.353Z,27.80
2022-09-16T14:14:15.693Z,27.71
2022-09-16T14:16:53.934Z,28.08
2022-09-16T14:19:21.543Z,28.05
2022-09-16T14:22:27.479Z,28.01
2022-09-16T14:25:06.725Z,27.72
2022-09-16T14:27:40.837Z,28.03
2022-09-16T14:30:17.657Z,27.91
2022-09-16T14:32:47.445Z,28.08
2022-09-16T14:35:24.935Z,28.00
2022-09-16T14:37:57.710Z,28.18
2022-09-16T14:40:29.661Z,28.23
2022-09-16T14:43:03.505Z,28.26
2022-09-16T14:45:32.998Z,28.32
2022-09-16T14:48:05.816Z,28.00
2022-09-16T14:50:38.280Z,28.14
2022-09-16T14:53:24.294Z,27.95
2022-09-16T14:55:55.535Z,27.91
2022-09-16T14:58:25.621Z,27.94
2022-09-16T15:00:59.964Z,28.16
2022-09-16T15:03:55.142Z,28.25
2022-09-16T15:06:29.062Z,27.99
2022-09-16T15:09:15.934Z,27.95
2022-09-16T15:11:57.103Z,28.00
2022-09-16T15:14:26.607Z,27.91
2022-09-16T15:17:01.497Z,28.01
2022-09-16T15:19:35.472Z,27.50
2022-09-16T15:22:04.632Z,28.16
2022-09-16T15:24:34.558Z,28.20
2022-09-16T15:27:03.059Z,27.95
2022-09-16T15:29:34.183Z,28.03
2022-09-16T15:32:21.049Z,27.92
2022-09-16T15:34:49.869Z,28.11
2022-09-16T15:37:32.799Z,28.29
2022-09-16T15:40:20.869Z,28.31
2022-09-16T15:43:00.964Z,28.34
2022-09-16T15:45:28.872Z,28.15
2022-09-16T15:48:17.563Z,28.21
2022-09-16T15:51:02.831Z,28.25
2022-09-16T15:53:30.395Z,28.33
2022-09-16T15:56:07.470Z,28.25
2022-09-16T15:58:44.574Z,28.23
2022-09-16T16:01:19.431Z,28.08
2022-09-16T16:03:53.380Z,28.28
2022-09-16T16:06:41.544Z,28.10
2022-09-16T16:09:28.303Z,28.12
2022-09-16T16:12:00.736Z,28.08
2022-09-16T16:14:32.376Z,27.96
2022-09-16T16:17:20.171Z,28.21
2022-09-16T16:19:50.557Z,28.10
2022-09-16T16:22:18.489Z,28.03
2022-09-16T16:24:46.179Z,28.05
2022-09-16T16:27:13.962Z,27.94
2022-09-16T16:29:41.571Z,28.03
2022-09-16T16:32:15.226Z,28.20
2022-09-16T16:34:45.829Z,28.08
2022-09-16T16:37:33.851Z,28.25
2022-09-16T16:40:06.079Z,28.25
2022-09-16T16:42:34.875Z,27.86
2022-09-16T16:45:02.827Z,27.99
2022-09-16T16:47:30.991Z,28.11
2022-09-16T16:49:59.881Z,26.85
2022-09-16T16:52:27.692Z,27.58
2022-09-16T16:54:55.380Z,27.82
2022-09-16T16:57:23.086Z,27.95
2022-09-16T16:59:51.956Z,28.04
2022-09-16T17:02:19.816Z,27.80
2022-09-16T17:04:47.550Z,27.94
2022-09-16T17:07:25.702Z,27.81
2022-09-16T17:09:54.539Z,28.01
2022-09-16T17:12:22.275Z,28.05
2022-09-16T17:14:50.050Z,28.02
2022-09-16T17:17:17.984Z,28.06
2022-09-16T17:19:45.663Z,27.72
2022-09-16T17:22:13.349Z,27.59
2022-09-16T17:24:40.972Z,28.10
2022-09-16T17:27:08.482Z,28.11
2022-09-16T17:29:36.036Z,28.15
2022-09-16T17:32:03.659Z,28.02
2022-09-16T17:34:31.499Z,28.07
2022-09-16T17:36:59.196Z,27.96
2022-09-16T17:39:27.226Z,28.34
2022-09-16T17:41:56.932Z,28.41
2022-09-16T17:44:25.065Z,28.15
2022-09-16T17:46:53.790Z,28.21
2022-09-16T17:49:24.213Z,28.53
2022-09-16T17:51:53.577Z,28.53
2022-09-16T17:54:22.333Z,28.41
2022-09-16T17:56:50.024Z,28.36
2022-09-16T17:59:19.091Z,28.75
2022-09-16T18:01:47.229Z,28.61
2022-09-16T18:04:14.982Z,28.83
2022-09-16T18:06:45.058Z,28.70
2022-09-16T18:09:13.784Z,28.38
2022-09-16T18:11:41.501Z,28.84
2022-09-16T18:14:12.773Z,28.57
2022-09-16T18:16:41.453Z,28.78
2022-09-16T18:19:09.780Z,28.59
2022-09-16T18:21:38.549Z,28.47
2022-09-16T18:24:11.387Z,28.79
2022-09-16T18:26:42.353Z,28.82
2022-09-16T18:29:12.975Z,28.43
2022-09-16T18:31:43.840Z,28.77
2022-09-16T18:34:12.577Z,28.46
2022-09-16T18:36:40.305Z,28.72
2022-09-16T18:39:13.015Z,28.39
2022-09-16T18:41:42.318Z,28.72
2022-09-16T18:44:16.801Z,28.53
2022-09-16T18:46:44.579Z,28.48
2022-09-16T18:49:14.769Z,28.75
2022-09-16T18:51:51.201Z,28.67
2022-09-16T18:54:29.060Z,28.80
2022-09-16T18:56:59.259Z,28.82
2022-09-16T18:59:29.662Z,28.82
2022-09-16T19:01:59.926Z,28.56
2022-09-16T19:04:30.349Z,28.81
2022-09-16T19:07:07.469Z,28.80
2022-09-16T19:09:37.495Z,28.38
2022-09-16T19:12:06.983Z,28.78
2022-09-16T19:14:34.632Z,28.49
2022-09-16T19:17:02.758Z,28.40
2022-09-16T19:19:30.397Z,28.43
2022-09-16T19:21:58.253Z,28.63
2022-09-16T19:24:27.235Z,28.76
2022-09-16T19:26:55.762Z,28.75
2022-09-16T19:29:23.680Z,28.65
2022-09-16T19:31:53.036Z,28.66
2022-09-16T19:34:22.039Z,28.52
2022-09-16T19:36:53.160Z,28.55
2022-09-16T19:39:21.493Z,28.32
2022-09-16T19:41:49.845Z,28.14
2022-09-16T19:44:18.593Z,28.68
2022-09-16T19:46:49.561Z,28.47
2022-09-16T19:49:20.406Z,28.40
2022-09-16T19:51:49.355Z,28.67
2022-09-16T19:54:17.453Z,28.58
2022-09-16T19:56:50.126Z,28.17
2022-09-16T19:59:19.683Z,28.46
2022-09-16T20:01:48.315Z,28.65
2022-09-16T20:04:19.840Z,28.35
2022-09-16T20:06:48.601Z,28.47
2022-09-16T20:09:17.163Z,28.48
2022-09-16T20:11:47.133Z,28.54
2022-09-16T20:14:19.224Z,28.55
2022-09-16T20:16:48.008Z,28.46
2022-09-16T20:19:17.447Z,28.43
2022-09-16T20:21:45.385Z,28.23
2022-09-16T20:24:18.506Z,28.29
2022-09-16T20:26:51.645Z,28.51
2022-09-16T20:29:20.217Z,28.17
2022-09-16T20:31:49.779Z,28.07
2022-09-16T20:34:18.075Z,27.99
2022-09-16T20:36:46.303Z,28.34
2022-09-16T20:39:14.535Z,28.42
2022-09-16T20:41:49.928Z,28.16
2022-09-16T20:44:18.046Z,28.33
2022-09-16T20:46:46.553Z,28.39
2022-09-16T20:49:17.390Z,28.37
2022-09-16T20:51:45.924Z,28.35
2022-09-16T20:54:15.775Z,28.25
2022-09-16T20:56:46.095Z,28.08
2022-09-16T20:59:15.309Z,28.09
2022-09-16T21:01:44.202Z,28.24
2022-09-16T21:04:16.398Z,28.23
2022-09-16T21:06:47.629Z,27.74
2022-09-16T21:09:19.556Z,28.18
2022-09-16T21:11:47.969Z,28.17
2022-09-16T21:14:17.373Z,28.15
2022-09-16T21:16:46.234Z,27.28
2022-09-16T21:19:14.676Z,27.99
2022-09-16T21:21:44.788Z,27.89
2022-09-16T21:24:13.515Z,28.08
2022-09-16T21:26:42.057Z,28.08
2022-09-16T21:29:13.804Z,27.93
2022-09-16T21:31:43.488Z,27.90
2022-09-16T21:34:14.067Z,27.95
2022-09-16T21:36:42.277Z,27.90
2022-09-16T21:39:10.831Z,27.56
2022-09-16T21:41:38.512Z,27.81
2022-09-16T21:44:06.679Z,27.90
2022-09-16T21:46:41.808Z,27.90
2022-09-16T21:49:17.342Z,27.60
2022-09-16T21:51:45.164Z,27.83
2022-09-16T21:54:16.573Z,27.84
2022-09-16T21:56:47.171Z,27.77
2022-09-16T21:59:15.180Z,27.83
2022-09-16T22:01:43.787Z,27.78
2022-09-16T22:04:15.601Z,27.79
2022-09-16T22:06:44.844Z,27.74
2022-09-16T22:09:12.598Z,27.75
2022-09-16T22:11:41.917Z,27.51
2022-09-16T22:14:11.421Z,27.72
2022-09-16T22:16:40.474Z,27.71
2022-09-16T22:19:13.703Z,27.41
2022-09-16T22:21:43.488Z,27.57
2022-09-16T22:24:11.934Z,27.49
2022-09-16T22:26:40.404Z,27.21
2022-09-16T22:29:09.675Z,27.62
2022-09-16T22:31:38.893Z,27.26
2022-09-16T22:34:07.017Z,27.58
2022-09-16T22:36:36.082Z,27.57
2022-09-16T22:39:13.030Z,27.58
2022-09-16T22:41:41.304Z,27.55
2022-09-16T22:44:09.117Z,27.45
2022-09-16T22:46:45.690Z,27.58
2022-09-16T22:49:13.809Z,27.60
2022-09-16T22:51:42.179Z,27.23
2022-09-16T22:54:12.678Z,27.46
2022-09-16T22:56:41.003Z,27.63
2022-09-16T22:59:16.574Z,27.60
2022-09-16T23:01:44.298Z,27.41
2022-09-16T23:04:12.498Z,27.63
2022-09-16T23:06:40.982Z,27.31
2022-09-16T23:09:11.017Z,27.58
2022-09-16T23:11:38.796Z,27.35
2022-09-16T23:14:06.701Z,27.18
2022-09-16T23:16:37.296Z,27.22
2022-09-16T23:19:10.915Z,27.52
2022-09-16T23:21:39.443Z,27.54
2022-09-16T23:24:09.916Z,27.26
2022-09-16T23:26:38.875Z,27.32
2022-09-16T23:29:09.352Z,27.40
2022-09-16T23:31:40.490Z,27.48
2022-09-16T23:34:13.520Z,27.42
2022-09-16T23:36:41.707Z,27.50
2022-09-16T23:39:13.669Z,27.12
2022-09-16T23:41:42.539Z,27.26
2022-09-16T23:44:13.787Z,27.49
2022-09-16T23:46:41.679Z,27.46
2022-09-16T23:49:10.202Z,26.99
2022-09-16T23:51:38.146Z,27.38
2022-09-16T23:54:05.793Z,26.56
2022-09-16T23:56:33.655Z,27.44
2022-09-16T23:59:05.143Z,26.60
